Aérodrome :
LOGIN :

S'inscrire | Disclaimer

   EN    FR    IT 

 










Légende :    VFR   VFR Marginal   IFR   IFR Intensif   IFR Très Intensif
Visi : 
Plafond : 
>= 8 km
>= 3000ft
5 à 8 km
1000 à 3000 ft
1500m à 5 km
500 à 1000 ft
800 à 1500m
200 à 500 ft
< 800m
< 200 ft
Symboles :   Orages  Brouillard  Fortes neiges  Fortes précipitations  Vent > 20 kt
SIGMETs :   Divers  Orages  Givrage  Turbulence  Onde Orograph.  Cendres Volcan.







- Altitude de l'aérodrome : 197 ft
- Code IATA : XOG
- Voir les cartes d'approche


LFMO - Orange

DERNIER METAR :
  • 162130Z AUTO 00000KT CAVOK 04/00 Q1029 BECMG 4000 BR

METARs EXPIRÉS :
  • 162100Z AUTO 04002KT CAVOK 04/00 Q1029 BECMG 4000 BR
  • 162030Z AUTO 06004KT CAVOK 05/00 Q1029 BECMG 4000 BR
  • 162000Z AUTO 07002KT CAVOK 05/01 Q1029 BECMG 3000 BR
  • 161930Z AUTO 13002KT CAVOK 05/01 Q1029 BECMG 3000 BR
  • 161900Z AUTO VRB02KT CAVOK 08/02 Q1029 BECMG 3000 BR

TAF TAF LFMO
Valide du 16 à 21h jusqu'au 17 à 21h UTC


162000Z 1621/1721 VRB02KT CAVOK
BECMG 1621/1623 4000 BR
TEMPO 1702/1708 0600 FG BKN002
PROB30
TEMPO 1703/1707 0400 FZFG VV///
BECMG 1708/1710 BKN003
BECMG 1711/1713 8000 NSW SCT008
BECMG 1719/1721 3000 BR
Pas de NOTAMs connus pour ce terrain.



MET'MAP, la Météo Aéronautique d'un coup d'oeil ! - Copyright ORBIFLY Décembre 2007 - Disclaimer

ORBIFLY MET'MAP TEAM :

Programmation & Développement : Alexandra Zaïnal
Conception & Développement : Baudouin d'Aumeries
Co-Programmation & Développement : Marc-Olivier Méhu
Soutien technique & logistique : Manuel Goepfert

Contact : metmap@orbifly.com




SOURCES & CREDITS :

   NOAA